createdAt,value
2018-05-12T00:00:06.551Z,12.20
2018-05-12T00:02:34.160Z,12.20
2018-05-12T00:05:01.701Z,12.20
2018-05-12T00:07:29.225Z,12.20
2018-05-12T00:09:56.732Z,12.10
2018-05-12T00:12:24.253Z,12.20
2018-05-12T00:14:51.783Z,12.20
2018-05-12T00:17:19.316Z,12.20
2018-05-12T00:19:46.853Z,12.20
2018-05-12T00:22:14.354Z,12.30
2018-05-12T00:24:42.640Z,12.20
2018-05-12T00:27:10.144Z,12.10
2018-05-12T00:29:37.682Z,12.10
2018-05-12T00:32:05.180Z,12.10
2018-05-12T00:34:32.708Z,12.00
2018-05-12T00:37:00.235Z,11.90
2018-05-12T00:39:27.741Z,11.90
2018-05-12T00:41:55.287Z,11.90
2018-05-12T00:44:22.822Z,11.90
2018-05-12T00:46:50.327Z,11.80
2018-05-12T00:49:17.843Z,11.80
2018-05-12T00:51:45.373Z,11.70
2018-05-12T00:54:13.685Z,11.60
2018-05-12T00:56:41.196Z,11.60
2018-05-12T00:59:09.486Z,11.50
2018-05-12T01:01:37.779Z,11.40
2018-05-12T01:04:05.288Z,11.30
2018-05-12T01:06:32.808Z,11.20
2018-05-12T01:09:00.316Z,11.00
2018-05-12T01:11:28.608Z,10.80
2018-05-12T01:13:56.887Z,10.80
2018-05-12T01:16:25.175Z,10.80
2018-05-12T01:18:52.737Z,10.80
2018-05-12T01:21:20.240Z,10.80
2018-05-12T01:23:47.750Z,10.80
2018-05-12T01:26:15.315Z,10.80
2018-05-12T01:28:42.798Z,10.80
2018-05-12T01:31:10.345Z,10.80
2018-05-12T01:33:37.863Z,10.80
2018-05-12T01:36:06.146Z,10.80
2018-05-12T01:38:34.440Z,10.80
2018-05-12T01:41:01.958Z,10.70
2018-05-12T01:43:29.543Z,10.80
2018-05-12T01:45:57.827Z,10.70
2018-05-12T01:48:26.107Z,10.70
2018-05-12T01:50:53.638Z,10.60
2018-05-12T01:53:21.160Z,10.60
2018-05-12T01:55:48.692Z,10.60
2018-05-12T01:58:16.206Z,10.60
2018-05-12T02:00:43.737Z,10.60
2018-05-12T02:03:11.281Z,10.50
2018-05-12T02:05:38.784Z,10.60
2018-05-12T02:08:06.308Z,10.60
2018-05-12T02:10:33.808Z,10.60
2018-05-12T02:13:02.103Z,10.60
2018-05-12T02:15:29.650Z,10.60
2018-05-12T02:17:57.925Z,10.60
2018-05-12T02:20:25.475Z,10.60
2018-05-12T02:22:52.999Z,10.60
2018-05-12T02:25:20.548Z,10.60
2018-05-12T02:27:48.062Z,10.60
2018-05-12T02:30:16.341Z,10.60
2018-05-12T02:32:43.904Z,10.60
2018-05-12T02:35:12.178Z,10.60
2018-05-12T02:37:40.479Z,10.60
2018-05-12T02:40:07.987Z,10.60
2018-05-12T02:42:35.512Z,10.70
2018-05-12T02:45:03.026Z,10.70
2018-05-12T02:47:31.334Z,10.70
2018-05-12T02:49:58.849Z,10.60
2018-05-12T02:52:26.360Z,10.70
2018-05-12T02:54:53.896Z,10.60
2018-05-12T02:57:21.455Z,10.60
2018-05-12T02:59:49.010Z,10.70
2018-05-12T03:02:17.287Z,10.70
2018-05-12T03:04:45.597Z,10.70
2018-05-12T03:07:13.114Z,10.60
2018-05-12T03:09:41.408Z,10.60
2018-05-12T03:12:09.690Z,10.70
2018-05-12T03:14:37.233Z,10.60
2018-05-12T03:17:05.527Z,10.60
2018-05-12T03:19:33.051Z,10.60
2018-05-12T03:22:01.359Z,10.70
2018-05-12T03:24:28.878Z,10.60
2018-05-12T03:26:56.420Z,10.70
2018-05-12T03:29:23.948Z,10.70
2018-05-12T03:31:51.480Z,10.70
2018-05-12T03:34:19.744Z,10.70
2018-05-12T03:36:47.281Z,10.70
2018-05-12T03:39:14.826Z,10.70
2018-05-12T03:41:42.342Z,10.70
2018-05-12T03:44:09.875Z,10.70
2018-05-12T03:46:37.393Z,10.70
2018-05-12T03:49:04.949Z,10.70
2018-05-12T03:51:32.461Z,10.70
2018-05-12T03:54:00.855Z,10.70
2018-05-12T03:56:28.310Z,10.70
2018-05-12T03:58:55.831Z,10.70
2018-05-12T04:01:23.378Z,10.70
2018-05-12T04:03:50.904Z,10.60
2018-05-12T04:06:30.410Z,10.70
2018-05-12T04:09:10.474Z,10.70
2018-05-12T04:11:50.713Z,10.80
2018-05-12T04:14:19.116Z,10.70
2018-05-12T04:16:46.628Z,10.80
2018-05-12T04:19:14.138Z,10.80
2018-05-12T04:21:41.669Z,10.80
2018-05-12T04:24:09.169Z,10.90
2018-05-12T04:26:36.720Z,11.00
2018-05-12T04:29:04.229Z,11.00
2018-05-12T04:31:31.768Z,11.00
2018-05-12T04:33:59.290Z,11.10
2018-05-12T04:36:26.801Z,11.00
2018-05-12T04:38:54.321Z,11.10
2018-05-12T04:41:21.839Z,11.10
2018-05-12T04:43:49.361Z,11.10
2018-05-12T04:46:16.906Z,11.10
2018-05-12T04:48:44.440Z,11.20
2018-05-12T04:51:11.966Z,11.20
2018-05-12T04:53:39.485Z,11.20
2018-05-12T04:56:07.027Z,11.20
2018-05-12T04:58:34.533Z,11.20
2018-05-12T05:01:02.084Z,11.30
2018-05-12T05:03:29.589Z,11.30
2018-05-12T05:05:57.144Z,11.30
2018-05-12T05:08:25.417Z,11.40
2018-05-12T05:10:53.701Z,11.40
2018-05-12T05:13:21.251Z,11.50
2018-05-12T05:15:48.791Z,11.50
2018-05-12T05:18:16.319Z,11.60
2018-05-12T05:20:43.836Z,11.60
2018-05-12T05:23:12.141Z,11.70
2018-05-12T05:25:39.654Z,11.70
2018-05-12T05:28:07.973Z,11.90
2018-05-12T05:30:35.485Z,11.90
2018-05-12T05:33:03.013Z,12.00
2018-05-12T05:35:30.534Z,12.10
2018-05-12T05:37:58.052Z,12.20
2018-05-12T05:40:25.569Z,12.30
2018-05-12T05:42:53.165Z,12.40
2018-05-12T05:45:20.689Z,12.50
2018-05-12T05:47:48.224Z,12.60
2018-05-12T05:50:15.916Z,12.70
2018-05-12T05:52:43.375Z,12.80
2018-05-12T05:55:10.918Z,12.90
2018-05-12T05:57:38.449Z,12.90
2018-05-12T06:00:06.758Z,13.00
2018-05-12T06:02:34.264Z,13.00
2018-05-12T06:05:01.795Z,13.10
2018-05-12T06:07:29.317Z,13.20
2018-05-12T06:09:56.820Z,13.30
2018-05-12T06:12:24.335Z,13.40
2018-05-12T06:14:51.841Z,13.50
2018-05-12T06:17:19.362Z,13.60
2018-05-12T06:19:46.918Z,13.80
2018-05-12T06:22:14.440Z,13.90
2018-05-12T06:24:41.966Z,14.10
2018-05-12T06:27:09.522Z,14.30
2018-05-12T06:29:37.042Z,14.40
2018-05-12T06:32:04.557Z,14.50
2018-05-12T06:34:32.102Z,14.60
2018-05-12T06:36:59.617Z,14.80
2018-05-12T06:39:27.165Z,15.00
2018-05-12T06:41:55.429Z,15.30
2018-05-12T06:44:23.733Z,15.50
2018-05-12T06:46:51.263Z,15.50
2018-05-12T06:49:18.786Z,15.80
2018-05-12T06:51:46.296Z,15.90
2018-05-12T06:54:14.580Z,16.30
2018-05-12T06:56:42.874Z,16.50
2018-05-12T06:59:10.387Z,16.50
2018-05-12T07:01:37.917Z,17.10
2018-05-12T07:04:06.182Z,17.90
2018-05-12T07:06:33.710Z,17.90
2018-05-12T07:09:02.015Z,18.30
2018-05-12T07:11:29.541Z,18.30
2018-05-12T07:13:57.824Z,18.60
2018-05-12T07:16:25.340Z,18.60
2018-05-12T07:18:52.870Z,18.90
2018-05-12T07:21:20.367Z,19.20
2018-05-12T07:23:48.099Z,19.30
2018-05-12T07:26:16.545Z,19.60
2018-05-12T07:28:44.076Z,19.60
2018-05-12T07:31:12.374Z,19.70
2018-05-12T07:33:40.675Z,19.80
2018-05-12T07:36:08.222Z,19.80
2018-05-12T07:38:35.754Z,19.90
2018-05-12T07:41:04.023Z,20.10
2018-05-12T07:43:31.557Z,20.10
2018-05-12T07:45:59.060Z,20.20
2018-05-12T07:48:27.359Z,20.40
2018-05-12T07:50:54.901Z,20.40
2018-05-12T07:53:23.187Z,20.70
2018-05-12T07:55:50.723Z,20.70
2018-05-12T07:58:18.253Z,20.80
2018-05-12T08:00:45.780Z,21.00
2018-05-12T08:03:13.312Z,21.10
2018-05-12T08:05:41.615Z,21.30
2018-05-12T08:08:09.131Z,21.30
2018-05-12T08:10:37.418Z,21.40
2018-05-12T08:13:05.711Z,21.50
2018-05-12T08:15:33.252Z,21.50
2018-05-12T08:18:01.532Z,21.70
2018-05-12T08:20:29.810Z,21.80
2018-05-12T08:22:58.141Z,21.90
2018-05-12T08:25:25.645Z,21.90
2018-05-12T08:27:53.950Z,22.20
2018-05-12T08:30:21.463Z,22.20
2018-05-12T08:32:49.742Z,22.60
2018-05-12T08:35:18.057Z,22.70
2018-05-12T08:37:46.298Z,22.70
2018-05-12T08:40:14.582Z,23.10
2018-05-12T08:42:42.934Z,23.10
2018-05-12T08:45:10.393Z,23.10
2018-05-12T08:47:37.899Z,23.10
2018-05-12T08:50:05.456Z,22.90
2018-05-12T08:52:32.971Z,22.50
2018-05-12T08:55:00.494Z,22.70
2018-05-12T08:57:28.029Z,22.80
2018-05-12T08:59:55.532Z,23.00
2018-05-12T09:02:23.058Z,23.10
2018-05-12T09:04:50.582Z,23.20
2018-05-12T09:07:18.998Z,23.30
2018-05-12T09:09:46.399Z,23.30
2018-05-12T09:12:13.913Z,23.50
2018-05-12T09:14:41.415Z,23.70
2018-05-12T09:17:08.947Z,23.90
2018-05-12T09:19:37.450Z,23.90
2018-05-12T09:22:04.967Z,23.80
2018-05-12T09:24:32.486Z,23.40
2018-05-12T09:27:00.768Z,23.80
2018-05-12T09:29:29.057Z,24.10
2018-05-12T09:31:56.558Z,24.10
2018-05-12T09:34:24.101Z,24.40
2018-05-12T09:36:51.601Z,24.60
2018-05-12T09:39:19.146Z,24.80
2018-05-12T09:41:46.662Z,24.90
2018-05-12T09:44:14.201Z,24.90
2018-05-12T09:46:42.465Z,24.90
2018-05-12T09:49:10.749Z,24.90
2018-05-12T09:51:39.058Z,25.00
2018-05-12T09:54:06.596Z,25.00
2018-05-12T09:56:34.887Z,25.00
2018-05-12T09:59:02.397Z,25.00
2018-05-12T10:01:29.914Z,24.90
2018-05-12T10:03:57.427Z,24.90
2018-05-12T10:06:24.988Z,25.10
2018-05-12T10:08:53.259Z,25.70
2018-05-12T10:11:20.767Z,25.70
2018-05-12T10:13:48.289Z,25.90
2018-05-12T10:16:16.570Z,25.90
2018-05-12T10:18:44.881Z,26.10
2018-05-12T10:21:12.388Z,26.10
2018-05-12T10:23:40.702Z,25.40
2018-05-12T10:26:08.264Z,25.40
2018-05-12T10:28:36.535Z,25.30
2018-05-12T10:31:04.052Z,25.30
2018-05-12T10:33:31.591Z,25.40
2018-05-12T10:35:59.102Z,25.10
2018-05-12T10:38:26.637Z,24.90
2018-05-12T10:40:54.158Z,24.90
2018-05-12T10:43:21.674Z,25.10
2018-05-12T10:45:49.982Z,24.30
2018-05-12T10:48:17.483Z,24.30
2018-05-12T10:50:44.994Z,23.80
2018-05-12T10:53:12.496Z,23.90
2018-05-12T10:55:40.033Z,24.10
2018-05-12T10:58:07.543Z,24.50
2018-05-12T11:00:35.822Z,24.90
2018-05-12T11:03:03.355Z,24.90
2018-05-12T11:05:30.868Z,24.80
2018-05-12T11:07:58.388Z,24.40
2018-05-12T11:10:26.667Z,24.00
2018-05-12T11:12:54.952Z,23.90
2018-05-12T11:15:22.483Z,23.90
2018-05-12T11:17:50.022Z,23.90
2018-05-12T11:20:17.634Z,23.70
2018-05-12T11:22:45.093Z,23.80
2018-05-12T11:25:12.595Z,23.80
2018-05-12T11:27:40.111Z,23.90
2018-05-12T11:30:07.652Z,23.90
2018-05-12T11:32:35.918Z,23.90
2018-05-12T11:35:04.200Z,24.00
2018-05-12T11:37:32.485Z,24.00
2018-05-12T11:40:00.767Z,24.20
2018-05-12T11:42:28.356Z,24.10
2018-05-12T11:44:55.895Z,24.30
2018-05-12T11:47:23.411Z,24.40
2018-05-12T11:49:50.948Z,24.70
2018-05-12T11:52:18.477Z,25.00
2018-05-12T11:54:45.983Z,25.30
2018-05-12T11:57:13.497Z,25.60
2018-05-12T11:59:41.011Z,25.40
2018-05-12T12:02:09.318Z,25.30
2018-05-12T12:04:36.841Z,25.20
2018-05-12T12:07:04.379Z,25.40
2018-05-12T12:09:31.891Z,25.60
2018-05-12T12:11:59.431Z,25.70
2018-05-12T12:14:27.721Z,25.90
2018-05-12T12:16:56.000Z,25.50
2018-05-12T12:19:24.288Z,25.40
2018-05-12T12:21:51.819Z,25.40
2018-05-12T12:24:20.117Z,25.70
2018-05-12T12:26:48.423Z,25.60
2018-05-12T12:29:15.961Z,25.60
2018-05-12T12:31:43.480Z,25.40
2018-05-12T12:34:11.013Z,25.50
2018-05-12T12:36:38.539Z,25.50
2018-05-12T12:39:06.037Z,25.80
2018-05-12T12:41:33.587Z,25.90
2018-05-12T12:44:01.097Z,26.20
2018-05-12T12:46:28.662Z,26.40
2018-05-12T12:48:56.966Z,26.30
2018-05-12T12:51:24.503Z,26.30
2018-05-12T12:53:52.000Z,26.20
2018-05-12T12:56:19.552Z,25.80
2018-05-12T12:58:47.053Z,25.80
2018-05-12T13:01:14.578Z,25.80
2018-05-12T13:03:42.120Z,25.60
2018-05-12T13:06:09.617Z,25.70
2018-05-12T13:08:37.149Z,25.90
2018-05-12T13:11:04.652Z,25.80
2018-05-12T13:13:32.945Z,25.80
2018-05-12T13:16:00.471Z,25.80
2018-05-12T13:18:28.798Z,25.80
2018-05-12T13:20:56.305Z,25.70
2018-05-12T13:23:23.845Z,25.60
2018-05-12T13:25:51.348Z,25.40
2018-05-12T13:28:20.602Z,25.40
2018-05-12T13:30:48.134Z,25.30
2018-05-12T13:33:15.637Z,25.10
2018-05-12T13:35:43.168Z,25.10
2018-05-12T13:38:10.692Z,25.30
2018-05-12T13:40:38.216Z,25.60
2018-05-12T13:43:05.715Z,25.80
2018-05-12T13:45:33.261Z,25.70
2018-05-12T13:48:00.829Z,25.50
2018-05-12T13:50:28.372Z,25.40
2018-05-12T13:52:56.653Z,25.50
2018-05-12T13:55:24.916Z,25.40
2018-05-12T13:57:53.224Z,25.40
2018-05-12T14:00:20.746Z,25.40
2018-05-12T14:02:48.266Z,25.60
2018-05-12T14:05:15.772Z,25.60
2018-05-12T14:07:44.129Z,26.00
2018-05-12T14:10:11.592Z,26.00
2018-05-12T14:12:39.115Z,26.30
2018-05-12T14:15:06.618Z,26.30
2018-05-12T14:17:34.123Z,26.40
2018-05-12T14:20:01.664Z,26.30
2018-05-12T14:22:29.186Z,26.20
2018-05-12T14:24:56.726Z,26.30
2018-05-12T14:27:24.246Z,26.50
2018-05-12T14:29:51.763Z,26.70
2018-05-12T14:32:20.071Z,27.20
2018-05-12T14:34:48.377Z,27.20
2018-05-12T14:37:15.893Z,27.20
2018-05-12T14:39:43.447Z,27.10
2018-05-12T14:42:11.713Z,27.10
2018-05-12T14:44:40.078Z,27.10
2018-05-12T14:47:07.671Z,27.10
2018-05-12T14:49:35.937Z,27.10
2018-05-12T14:52:04.222Z,26.60
2018-05-12T14:54:31.746Z,26.50
2018-05-12T14:56:59.277Z,25.90
2018-05-12T14:59:26.821Z,25.60
2018-05-12T15:01:54.365Z,25.30
2018-05-12T15:04:22.633Z,24.80
2018-05-12T15:06:50.914Z,24.50
2018-05-12T15:09:19.206Z,24.20
2018-05-12T15:11:46.749Z,24.20
2018-05-12T15:14:15.032Z,23.90
2018-05-12T15:16:42.552Z,23.90
2018-05-12T15:19:10.089Z,23.80
2018-05-12T15:21:37.603Z,23.70
2018-05-12T15:24:05.880Z,23.50
2018-05-12T15:26:34.166Z,23.50
2018-05-12T15:29:01.734Z,23.50
2018-05-12T15:31:29.237Z,23.50
2018-05-12T15:33:56.740Z,23.50
2018-05-12T15:36:24.287Z,23.60
2018-05-12T15:38:52.593Z,23.70
2018-05-12T15:41:20.127Z,23.70
2018-05-12T15:43:48.494Z,23.80
2018-05-12T15:46:15.952Z,23.80
2018-05-12T15:48:44.224Z,23.60
2018-05-12T15:51:11.796Z,23.60
2018-05-12T15:53:40.077Z,23.70
2018-05-12T15:56:07.615Z,23.70
2018-05-12T15:58:35.152Z,23.80
2018-05-12T16:01:02.673Z,23.90
2018-05-12T16:03:30.188Z,24.00
2018-05-12T16:05:57.750Z,24.00
2018-05-12T16:08:25.260Z,23.90
2018-05-12T16:10:52.784Z,23.80
2018-05-12T16:13:21.081Z,23.60
2018-05-12T16:15:48.585Z,23.60
2018-05-12T16:18:16.125Z,23.50
2018-05-12T16:20:43.631Z,23.40
2018-05-12T16:23:11.908Z,23.20
2018-05-12T16:25:40.249Z,23.20
2018-05-12T16:28:07.797Z,23.20
2018-05-12T16:30:35.316Z,23.30
2018-05-12T16:33:02.836Z,23.50
2018-05-12T16:35:30.361Z,23.70
2018-05-12T16:37:57.864Z,23.70
2018-05-12T16:40:25.398Z,23.70
2018-05-12T16:42:52.919Z,23.80
2018-05-12T16:45:20.435Z,23.80
2018-05-12T16:47:47.952Z,23.70
2018-05-12T16:50:15.456Z,23.60
2018-05-12T16:52:42.982Z,23.60
2018-05-12T16:55:10.502Z,23.50
2018-05-12T16:57:38.020Z,23.40
2018-05-12T17:00:05.534Z,23.30
2018-05-12T17:02:33.118Z,23.40
2018-05-12T17:05:01.432Z,23.40
2018-05-12T17:07:28.975Z,23.40
2018-05-12T17:09:56.480Z,23.40
2018-05-12T17:12:24.098Z,23.30
2018-05-12T17:14:52.306Z,23.10
2018-05-12T17:17:20.607Z,22.80
2018-05-12T17:19:48.109Z,22.80
2018-05-12T17:22:15.604Z,22.70
2018-05-12T17:24:43.161Z,22.70
2018-05-12T17:27:10.678Z,22.50
2018-05-12T17:29:38.207Z,22.40
2018-05-12T17:32:05.718Z,22.40
2018-05-12T17:34:34.004Z,22.30
2018-05-12T17:37:02.282Z,22.30
2018-05-12T17:39:30.581Z,22.30
2018-05-12T17:41:58.091Z,22.20
2018-05-12T17:44:25.625Z,22.30
2018-05-12T17:46:53.141Z,22.20
2018-05-12T17:49:20.647Z,22.10
2018-05-12T17:51:48.178Z,22.10
2018-05-12T17:54:15.701Z,22.10
2018-05-12T17:56:43.998Z,22.00
2018-05-12T17:59:11.525Z,21.90
2018-05-12T18:01:39.019Z,21.90
2018-05-12T18:04:07.318Z,21.80
2018-05-12T18:06:34.812Z,21.80
2018-05-12T18:09:02.348Z,21.70
2018-05-12T18:11:29.908Z,21.60
2018-05-12T18:13:57.413Z,21.60
2018-05-12T18:16:25.694Z,21.50
2018-05-12T18:18:53.993Z,21.50
2018-05-12T18:21:21.521Z,21.40
2018-05-12T18:23:49.789Z,21.30
2018-05-12T18:26:18.091Z,21.20
2018-05-12T18:28:45.620Z,21.20
2018-05-12T18:31:13.140Z,21.10
2018-05-12T18:33:40.667Z,21.10
2018-05-12T18:36:08.183Z,21.00
2018-05-12T18:38:35.707Z,20.90
2018-05-12T18:41:03.249Z,20.80
2018-05-12T18:43:30.770Z,20.80
2018-05-12T18:45:58.284Z,20.70
2018-05-12T18:48:25.809Z,20.60
2018-05-12T18:50:53.348Z,20.60
2018-05-12T18:53:20.870Z,20.50
2018-05-12T18:55:48.394Z,20.50
2018-05-12T18:58:16.256Z,20.40
2018-05-12T19:00:43.814Z,20.20
2018-05-12T19:03:12.100Z,20.00
2018-05-12T19:05:39.619Z,20.00
2018-05-12T19:08:07.153Z,20.00
2018-05-12T19:10:34.656Z,19.90
2018-05-12T19:13:02.937Z,19.80
2018-05-12T19:15:31.229Z,19.70
2018-05-12T19:17:58.808Z,19.70
2018-05-12T19:20:26.342Z,19.60
2018-05-12T19:22:53.862Z,19.50
2018-05-12T19:25:21.378Z,19.50
2018-05-12T19:27:48.895Z,19.50
2018-05-12T19:30:17.190Z,19.40
2018-05-12T19:32:45.545Z,19.30
2018-05-12T19:35:12.999Z,19.30
2018-05-12T19:37:40.520Z,19.20
2018-05-12T19:40:08.038Z,19.20
2018-05-12T19:42:36.344Z,19.00
2018-05-12T19:45:03.897Z,19.00
2018-05-12T19:47:31.426Z,19.00
2018-05-12T19:49:59.691Z,18.90
2018-05-12T19:52:27.218Z,18.80
2018-05-12T19:54:54.730Z,18.80
2018-05-12T19:57:23.039Z,18.50
2018-05-12T19:59:51.814Z,18.50
2018-05-12T20:02:19.399Z,18.50
2018-05-12T20:04:46.924Z,18.40
2018-05-12T20:07:14.424Z,18.30
2018-05-12T20:09:42.112Z,18.20
2018-05-12T20:12:09.598Z,18.20
2018-05-12T20:14:37.121Z,18.10
2018-05-12T20:17:04.638Z,18.10
2018-05-12T20:19:32.160Z,18.00
2018-05-12T20:22:00.425Z,17.80
2018-05-12T20:24:28.715Z,17.80
2018-05-12T20:26:57.038Z,17.70
2018-05-12T20:29:24.557Z,17.70
2018-05-12T20:31:52.084Z,17.60
2018-05-12T20:34:19.595Z,17.60
2018-05-12T20:36:47.125Z,17.50
2018-05-12T20:39:15.424Z,17.20
2018-05-12T20:41:42.978Z,17.10
2018-05-12T20:44:10.489Z,17.10
2018-05-12T20:46:38.026Z,17.00
2018-05-12T20:49:05.545Z,16.80
2018-05-12T20:51:33.052Z,16.50
2018-05-12T20:54:00.591Z,16.30
2018-05-12T20:56:28.103Z,16.30
2018-05-12T20:58:56.399Z,16.50
2018-05-12T21:01:23.921Z,16.40
2018-05-12T21:03:51.453Z,16.50
2018-05-12T21:06:19.113Z,16.50
2018-05-12T21:08:46.639Z,16.50
2018-05-12T21:11:14.146Z,16.50
2018-05-12T21:13:41.683Z,16.30
2018-05-12T21:16:09.209Z,16.30
2018-05-12T21:18:37.486Z,16.10
2018-05-12T21:21:05.791Z,15.90
2018-05-12T21:23:33.306Z,15.90
2018-05-12T21:26:01.620Z,15.80
2018-05-12T21:28:29.136Z,15.70
2018-05-12T21:30:56.685Z,15.70
2018-05-12T21:33:24.189Z,15.60
2018-05-12T21:35:51.730Z,15.50
2018-05-12T21:38:20.016Z,15.30
2018-05-12T21:40:47.544Z,15.30
2018-05-12T21:43:15.077Z,15.30
2018-05-12T21:45:42.591Z,15.30
2018-05-12T21:48:10.123Z,15.20
2018-05-12T21:50:37.620Z,15.30
2018-05-12T21:53:05.137Z,15.30
2018-05-12T21:55:33.454Z,15.20
2018-05-12T21:58:00.982Z,15.20
2018-05-12T22:00:29.252Z,15.00
2018-05-12T22:02:56.744Z,15.00
2018-05-12T22:05:24.273Z,15.00
2018-05-12T22:07:52.625Z,15.00
2018-05-12T22:10:20.695Z,15.00
2018-05-12T22:12:48.216Z,14.90
2018-05-12T22:15:15.732Z,14.90
2018-05-12T22:17:43.249Z,14.90
2018-05-12T22:20:10.805Z,14.90
2018-05-12T22:22:38.314Z,14.80
2018-05-12T22:25:06.620Z,14.40
2018-05-12T22:27:34.120Z,14.40
2018-05-12T22:30:01.629Z,14.40
2018-05-12T22:32:29.155Z,14.30
2018-05-12T22:34:56.684Z,14.30
2018-05-12T22:37:24.196Z,14.20
2018-05-12T22:39:52.472Z,14.00
2018-05-12T22:42:20.785Z,13.80
2018-05-12T22:44:48.281Z,13.80
2018-05-12T22:47:15.870Z,13.70
2018-05-12T22:49:43.349Z,13.60
2018-05-12T22:52:10.902Z,13.40
2018-05-12T22:54:38.940Z,13.30
2018-05-12T22:57:06.455Z,13.20
2018-05-12T22:59:34.032Z,13.10
2018-05-12T23:02:01.543Z,13.20
2018-05-12T23:04:29.060Z,13.30
2018-05-12T23:06:56.573Z,13.40
2018-05-12T23:09:24.103Z,13.50
2018-05-12T23:11:52.378Z,13.50
2018-05-12T23:14:20.682Z,13.40
2018-05-12T23:16:48.192Z,13.40
2018-05-12T23:19:15.729Z,13.30
2018-05-12T23:21:43.250Z,13.30
2018-05-12T23:24:10.804Z,13.30
2018-05-12T23:26:38.328Z,13.30
2018-05-12T23:29:05.839Z,13.30
2018-05-12T23:31:33.377Z,13.20
2018-05-12T23:34:00.895Z,13.20
2018-05-12T23:36:28.440Z,13.20
2018-05-12T23:38:55.956Z,13.10
2018-05-12T23:41:23.492Z,12.90
2018-05-12T23:43:51.022Z,12.90
2018-05-12T23:46:18.558Z,12.80
2018-05-12T23:48:46.094Z,12.70
2018-05-12T23:51:13.672Z,12.70
2018-05-12T23:53:41.195Z,12.90
2018-05-12T23:56:09.479Z,12.70
2018-05-12T23:58:37.810Z,12.70
